sensor_id;sensor_type;location;lat;lon;timestamp;P1;durP1;ratioP1;P2;durP2;ratioP2
10063;SDS011;5071;52.360;13.134;2023-04-25T00:02:24;3.30;;;1.80;;
10063;SDS011;5071;52.360;13.134;2023-04-25T00:07:27;2.00;;;1.20;;
10063;SDS011;5071;52.360;13.134;2023-04-25T00:12:30;2.17;;;1.10;;
10063;SDS011;5071;52.360;13.134;2023-04-25T00:17:32;2.10;;;1.37;;
10063;SDS011;5071;52.360;13.134;2023-04-25T00:22:36;3.10;;;1.47;;
10063;SDS011;5071;52.360;13.134;2023-04-25T00:27:38;2.93;;;1.60;;
10063;SDS011;5071;52.360;13.134;2023-04-25T00:32:40;2.57;;;1.30;;
10063;SDS011;5071;52.360;13.134;2023-04-25T00:37:44;2.33;;;1.40;;
10063;SDS011;5071;52.360;13.134;2023-04-25T00:42:46;2.23;;;1.57;;
10063;SDS011;5071;52.360;13.134;2023-04-25T00:47:48;3.07;;;1.37;;
10063;SDS011;5071;52.360;13.134;2023-04-25T00:52:52;3.27;;;1.47;;
10063;SDS011;5071;52.360;13.134;2023-04-25T00:57:54;2.00;;;1.57;;
10063;SDS011;5071;52.360;13.134;2023-04-25T01:02:56;2.73;;;1.40;;
10063;SDS011;5071;52.360;13.134;2023-04-25T01:08:01;4.03;;;1.90;;
10063;SDS011;5071;52.360;13.134;2023-04-25T01:13:04;4.37;;;1.50;;
10063;SDS011;5071;52.360;13.134;2023-04-25T01:18:06;4.43;;;1.67;;
10063;SDS011;5071;52.360;13.134;2023-04-25T01:23:11;2.07;;;1.33;;
10063;SDS011;5071;52.360;13.134;2023-04-25T01:28:14;3.30;;;1.43;;
10063;SDS011;5071;52.360;13.134;2023-04-25T01:33:16;2.90;;;1.63;;
10063;SDS011;5071;52.360;13.134;2023-04-25T01:38:21;5.80;;;1.80;;
10063;SDS011;5071;52.360;13.134;2023-04-25T01:43:24;6.33;;;1.93;;
10063;SDS011;5071;52.360;13.134;2023-04-25T01:48:26;4.27;;;1.63;;
10063;SDS011;5071;52.360;13.134;2023-04-25T01:53:30;3.23;;;1.60;;
10063;SDS011;5071;52.360;13.134;2023-04-25T01:58:32;2.87;;;2.00;;
10063;SDS011;5071;52.360;13.134;2023-04-25T02:03:34;9.57;;;1.90;;
10063;SDS011;5071;52.360;13.134;2023-04-25T02:08:38;2.13;;;1.70;;
10063;SDS011;5071;52.360;13.134;2023-04-25T02:13:40;4.53;;;2.00;;
10063;SDS011;5071;52.360;13.134;2023-04-25T02:18:42;4.83;;;2.13;;
10063;SDS011;5071;52.360;13.134;2023-04-25T02:23:46;6.33;;;2.13;;
10063;SDS011;5071;52.360;13.134;2023-04-25T02:28:48;3.13;;;1.90;;
10063;SDS011;5071;52.360;13.134;2023-04-25T02:33:51;3.03;;;1.70;;
10063;SDS011;5071;52.360;13.134;2023-04-25T02:38:54;3.07;;;1.83;;
10063;SDS011;5071;52.360;13.134;2023-04-25T02:43:56;4.10;;;1.90;;
10063;SDS011;5071;52.360;13.134;2023-04-25T02:48:59;4.07;;;1.90;;
10063;SDS011;5071;52.360;13.134;2023-04-25T02:54:02;3.63;;;2.10;;
10063;SDS011;5071;52.360;13.134;2023-04-25T02:59:05;6.77;;;2.07;;
10063;SDS011;5071;52.360;13.134;2023-04-25T03:04:07;2.77;;;1.80;;
10063;SDS011;5071;52.360;13.134;2023-04-25T03:09:10;2.77;;;1.93;;
10063;SDS011;5071;52.360;13.134;2023-04-25T03:14:13;5.47;;;2.20;;
10063;SDS011;5071;52.360;13.134;2023-04-25T03:19:15;5.30;;;2.17;;
10063;SDS011;5071;52.360;13.134;2023-04-25T03:24:18;5.77;;;2.70;;
10063;SDS011;5071;52.360;13.134;2023-04-25T03:29:20;3.80;;;2.20;;
10063;SDS011;5071;52.360;13.134;2023-04-25T03:34:23;7.23;;;2.43;;
10063;SDS011;5071;52.360;13.134;2023-04-25T03:39:26;3.90;;;2.23;;
10063;SDS011;5071;52.360;13.134;2023-04-25T03:44:28;3.70;;;2.67;;
10063;SDS011;5071;52.360;13.134;2023-04-25T03:49:30;7.90;;;2.20;;
10063;SDS011;5071;52.360;13.134;2023-04-25T03:54:34;8.57;;;3.70;;
10063;SDS011;5071;52.360;13.134;2023-04-25T03:59:36;3.97;;;2.47;;
10063;SDS011;5071;52.360;13.134;2023-04-25T04:04:38;5.70;;;2.70;;
10063;SDS011;5071;52.360;13.134;2023-04-25T04:09:42;3.00;;;2.27;;
10063;SDS011;5071;52.360;13.134;2023-04-25T04:14:44;7.17;;;2.60;;
10063;SDS011;5071;52.360;13.134;2023-04-25T04:19:46;3.63;;;2.50;;
10063;SDS011;5071;52.360;13.134;2023-04-25T04:24:49;3.43;;;3.10;;
10063;SDS011;5071;52.360;13.134;2023-04-25T04:29:51;6.53;;;2.53;;
10063;SDS011;5071;52.360;13.134;2023-04-25T04:34:54;4.90;;;2.40;;
10063;SDS011;5071;52.360;13.134;2023-04-25T04:39:57;4.80;;;3.17;;
10063;SDS011;5071;52.360;13.134;2023-04-25T04:44:59;5.63;;;3.70;;
10063;SDS011;5071;52.360;13.134;2023-04-25T04:50:01;6.57;;;2.90;;
10063;SDS011;5071;52.360;13.134;2023-04-25T04:55:05;5.83;;;3.07;;
10063;SDS011;5071;52.360;13.134;2023-04-25T05:00:08;7.37;;;3.07;;
10063;SDS011;5071;52.360;13.134;2023-04-25T05:05:11;6.27;;;2.93;;
10063;SDS011;5071;52.360;13.134;2023-04-25T05:10:15;6.70;;;2.73;;
10063;SDS011;5071;52.360;13.134;2023-04-25T05:15:17;4.07;;;2.67;;
10063;SDS011;5071;52.360;13.134;2023-04-25T05:20:19;5.90;;;2.63;;
10063;SDS011;5071;52.360;13.134;2023-04-25T05:25:22;4.20;;;2.40;;
10063;SDS011;5071;52.360;13.134;2023-04-25T05:30:24;8.73;;;2.97;;
10063;SDS011;5071;52.360;13.134;2023-04-25T05:35:26;6.23;;;3.33;;
10063;SDS011;5071;52.360;13.134;2023-04-25T05:40:29;5.67;;;2.90;;
10063;SDS011;5071;52.360;13.134;2023-04-25T05:45:31;3.43;;;2.40;;
10063;SDS011;5071;52.360;13.134;2023-04-25T05:50:34;5.03;;;2.80;;
10063;SDS011;5071;52.360;13.134;2023-04-25T05:55:37;5.27;;;2.40;;
10063;SDS011;5071;52.360;13.134;2023-04-25T06:00:40;5.63;;;2.83;;
10063;SDS011;5071;52.360;13.134;2023-04-25T06:05:41;5.77;;;2.63;;
10063;SDS011;5071;52.360;13.134;2023-04-25T06:10:45;6.23;;;2.93;;
10063;SDS011;5071;52.360;13.134;2023-04-25T06:15:47;6.83;;;3.37;;
10063;SDS011;5071;52.360;13.134;2023-04-25T06:20:49;7.67;;;3.03;;
10063;SDS011;5071;52.360;13.134;2023-04-25T06:25:52;9.90;;;3.13;;
10063;SDS011;5071;52.360;13.134;2023-04-25T06:30:57;5.63;;;3.13;;
10063;SDS011;5071;52.360;13.134;2023-04-25T06:35:58;5.10;;;2.70;;
10063;SDS011;5071;52.360;13.134;2023-04-25T06:41:20;4.00;;;2.93;;
10063;SDS011;5071;52.360;13.134;2023-04-25T06:46:22;4.07;;;2.40;;
10063;SDS011;5071;52.360;13.134;2023-04-25T06:51:24;8.37;;;3.50;;
10063;SDS011;5071;52.360;13.134;2023-04-25T06:56:27;8.43;;;2.83;;
10063;SDS011;5071;52.360;13.134;2023-04-25T07:01:30;4.83;;;2.70;;
10063;SDS011;5071;52.360;13.134;2023-04-25T07:06:32;3.63;;;2.20;;
10063;SDS011;5071;52.360;13.134;2023-04-25T07:11:35;4.63;;;2.40;;
10063;SDS011;5071;52.360;13.134;2023-04-25T07:16:38;3.50;;;2.20;;
10063;SDS011;5071;52.360;13.134;2023-04-25T07:21:40;5.47;;;2.00;;
10063;SDS011;5071;52.360;13.134;2023-04-25T07:26:43;5.67;;;2.10;;
10063;SDS011;5071;52.360;13.134;2023-04-25T07:31:45;4.73;;;2.07;;
10063;SDS011;5071;52.360;13.134;2023-04-25T07:36:47;8.37;;;2.67;;
10063;SDS011;5071;52.360;13.134;2023-04-25T07:41:50;5.93;;;2.30;;
10063;SDS011;5071;52.360;13.134;2023-04-25T07:46:55;7.20;;;2.47;;
10063;SDS011;5071;52.360;13.134;2023-04-25T07:51:57;10.30;;;2.53;;
10063;SDS011;5071;52.360;13.134;2023-04-25T07:57:00;7.53;;;2.03;;
10063;SDS011;5071;52.360;13.134;2023-04-25T08:02:03;9.53;;;2.63;;
10063;SDS011;5071;52.360;13.134;2023-04-25T08:07:04;6.73;;;2.43;;
10063;SDS011;5071;52.360;13.134;2023-04-25T08:12:08;7.93;;;2.47;;
10063;SDS011;5071;52.360;13.134;2023-04-25T08:17:10;6.10;;;2.23;;
10063;SDS011;5071;52.360;13.134;2023-04-25T08:22:12;4.60;;;2.13;;
10063;SDS011;5071;52.360;13.134;2023-04-25T08:27:15;8.27;;;2.10;;
10063;SDS011;5071;52.360;13.134;2023-04-25T08:32:18;7.90;;;2.33;;
10063;SDS011;5071;52.360;13.134;2023-04-25T08:37:19;10.27;;;2.40;;
10063;SDS011;5071;52.360;13.134;2023-04-25T08:42:24;5.57;;;2.00;;
10063;SDS011;5071;52.360;13.134;2023-04-25T08:47:28;8.43;;;2.40;;
10063;SDS011;5071;52.360;13.134;2023-04-25T08:52:32;8.47;;;1.80;;
10063;SDS011;5071;52.360;13.134;2023-04-25T08:57:39;4.97;;;1.60;;
10063;SDS011;5071;52.360;13.134;2023-04-25T09:02:42;10.13;;;1.87;;
10063;SDS011;5071;52.360;13.134;2023-04-25T09:07:45;3.90;;;1.57;;
10063;SDS011;5071;52.360;13.134;2023-04-25T09:13:03;4.07;;;1.70;;
10063;SDS011;5071;52.360;13.134;2023-04-25T09:18:06;5.00;;;1.70;;
10063;SDS011;5071;52.360;13.134;2023-04-25T09:23:08;7.17;;;1.90;;
10063;SDS011;5071;52.360;13.134;2023-04-25T09:28:11;5.97;;;1.70;;
10063;SDS011;5071;52.360;13.134;2023-04-25T09:33:14;9.20;;;2.00;;
10063;SDS011;5071;52.360;13.134;2023-04-25T09:38:16;5.83;;;1.47;;
10063;SDS011;5071;52.360;13.134;2023-04-25T09:43:22;6.77;;;1.80;;
10063;SDS011;5071;52.360;13.134;2023-04-25T09:48:26;4.23;;;1.37;;
10063;SDS011;5071;52.360;13.134;2023-04-25T09:53:29;10.50;;;1.50;;
10063;SDS011;5071;52.360;13.134;2023-04-25T09:58:32;5.40;;;1.27;;
10063;SDS011;5071;52.360;13.134;2023-04-25T10:03:36;4.57;;;1.27;;
10063;SDS011;5071;52.360;13.134;2023-04-25T10:08:39;3.10;;;1.30;;
10063;SDS011;5071;52.360;13.134;2023-04-25T10:13:43;3.73;;;1.27;;
10063;SDS011;5071;52.360;13.134;2023-04-25T10:18:47;5.53;;;1.50;;
10063;SDS011;5071;52.360;13.134;2023-04-25T10:23:50;3.67;;;1.20;;
10063;SDS011;5071;52.360;13.134;2023-04-25T10:28:58;3.67;;;1.30;;
10063;SDS011;5071;52.360;13.134;2023-04-25T10:34:01;3.70;;;1.40;;
10063;SDS011;5071;52.360;13.134;2023-04-25T10:39:03;6.30;;;1.43;;
10063;SDS011;5071;52.360;13.134;2023-04-25T10:44:08;4.93;;;1.67;;
10063;SDS011;5071;52.360;13.134;2023-04-25T10:49:10;4.67;;;1.70;;
10063;SDS011;5071;52.360;13.134;2023-04-25T10:54:15;5.20;;;1.83;;
10063;SDS011;5071;52.360;13.134;2023-04-25T10:59:20;5.70;;;1.27;;
10063;SDS011;5071;52.360;13.134;2023-04-25T11:04:28;4.27;;;1.20;;
10063;SDS011;5071;52.360;13.134;2023-04-25T11:09:32;4.30;;;1.20;;
10063;SDS011;5071;52.360;13.134;2023-04-25T11:14:36;2.00;;;1.20;;
10063;SDS011;5071;52.360;13.134;2023-04-25T11:19:42;4.47;;;2.00;;
10063;SDS011;5071;52.360;13.134;2023-04-25T11:24:43;6.13;;;1.37;;
10063;SDS011;5071;52.360;13.134;2023-04-25T11:29:48;3.80;;;1.27;;
10063;SDS011;5071;52.360;13.134;2023-04-25T11:34:52;3.10;;;1.73;;
10063;SDS011;5071;52.360;13.134;2023-04-25T11:39:54;3.43;;;1.10;;
10063;SDS011;5071;52.360;13.134;2023-04-25T11:44:57;4.83;;;1.27;;
10063;SDS011;5071;52.360;13.134;2023-04-25T11:49:59;5.43;;;0.90;;
10063;SDS011;5071;52.360;13.134;2023-04-25T11:55:03;4.50;;;1.27;;
10063;SDS011;5071;52.360;13.134;2023-04-25T12:00:09;5.37;;;1.50;;
10063;SDS011;5071;52.360;13.134;2023-04-25T12:05:17;3.60;;;0.90;;
10063;SDS011;5071;52.360;13.134;2023-04-25T12:10:23;7.23;;;1.50;;
10063;SDS011;5071;52.360;13.134;2023-04-25T12:15:28;3.43;;;1.20;;
10063;SDS011;5071;52.360;13.134;2023-04-25T12:20:31;4.13;;;1.10;;
10063;SDS011;5071;52.360;13.134;2023-04-25T12:25:36;2.57;;;1.07;;
10063;SDS011;5071;52.360;13.134;2023-04-25T12:30:56;5.80;;;1.20;;
10063;SDS011;5071;52.360;13.134;2023-04-25T12:36:00;5.90;;;1.13;;
10063;SDS011;5071;52.360;13.134;2023-04-25T12:41:06;3.50;;;1.23;;
10063;SDS011;5071;52.360;13.134;2023-04-25T12:46:10;7.70;;;1.00;;
10063;SDS011;5071;52.360;13.134;2023-04-25T12:51:12;3.43;;;0.80;;
10063;SDS011;5071;52.360;13.134;2023-04-25T12:56:14;2.67;;;1.30;;
10063;SDS011;5071;52.360;13.134;2023-04-25T13:01:17;3.50;;;1.00;;
10063;SDS011;5071;52.360;13.134;2023-04-25T13:06:19;3.83;;;1.83;;
10063;SDS011;5071;52.360;13.134;2023-04-25T13:11:22;8.80;;;1.40;;
10063;SDS011;5071;52.360;13.134;2023-04-25T13:16:25;3.50;;;1.40;;
10063;SDS011;5071;52.360;13.134;2023-04-25T13:21:29;2.67;;;1.10;;
10063;SDS011;5071;52.360;13.134;2023-04-25T13:26:31;3.10;;;1.40;;
10063;SDS011;5071;52.360;13.134;2023-04-25T13:31:35;2.87;;;1.40;;
10063;SDS011;5071;52.360;13.134;2023-04-25T13:36:37;4.70;;;1.70;;
10063;SDS011;5071;52.360;13.134;2023-04-25T13:41:39;2.23;;;1.30;;
10063;SDS011;5071;52.360;13.134;2023-04-25T13:46:42;3.10;;;1.13;;
10063;SDS011;5071;52.360;13.134;2023-04-25T13:51:48;6.20;;;1.40;;
10063;SDS011;5071;52.360;13.134;2023-04-25T13:56:50;4.73;;;1.60;;
10063;SDS011;5071;52.360;13.134;2023-04-25T14:01:53;6.70;;;1.80;;
10063;SDS011;5071;52.360;13.134;2023-04-25T14:06:56;3.77;;;1.43;;
10063;SDS011;5071;52.360;13.134;2023-04-25T14:11:59;6.80;;;1.37;;
10063;SDS011;5071;52.360;13.134;2023-04-25T14:17:02;6.53;;;1.60;;
10063;SDS011;5071;52.360;13.134;2023-04-25T14:22:04;3.97;;;1.30;;
10063;SDS011;5071;52.360;13.134;2023-04-25T14:27:07;6.13;;;1.80;;
10063;SDS011;5071;52.360;13.134;2023-04-25T14:32:11;3.87;;;1.60;;
10063;SDS011;5071;52.360;13.134;2023-04-25T14:37:13;5.77;;;1.43;;
10063;SDS011;5071;52.360;13.134;2023-04-25T14:42:15;3.60;;;1.10;;
10063;SDS011;5071;52.360;13.134;2023-04-25T14:47:18;4.33;;;1.07;;
10063;SDS011;5071;52.360;13.134;2023-04-25T14:52:20;4.30;;;1.50;;
10063;SDS011;5071;52.360;13.134;2023-04-25T14:57:22;2.63;;;1.13;;
10063;SDS011;5071;52.360;13.134;2023-04-25T15:02:25;4.17;;;1.30;;
10063;SDS011;5071;52.360;13.134;2023-04-25T15:07:27;2.83;;;1.40;;
10063;SDS011;5071;52.360;13.134;2023-04-25T15:12:29;3.43;;;1.13;;
10063;SDS011;5071;52.360;13.134;2023-04-25T15:17:33;1.87;;;1.20;;
10063;SDS011;5071;52.360;13.134;2023-04-25T15:22:35;7.40;;;1.03;;
10063;SDS011;5071;52.360;13.134;2023-04-25T15:27:38;3.03;;;0.87;;
10063;SDS011;5071;52.360;13.134;2023-04-25T15:32:42;2.43;;;0.97;;
10063;SDS011;5071;52.360;13.134;2023-04-25T15:37:45;3.63;;;0.80;;
10063;SDS011;5071;52.360;13.134;2023-04-25T15:42:48;4.67;;;1.00;;
10063;SDS011;5071;52.360;13.134;2023-04-25T15:47:53;6.03;;;1.03;;
10063;SDS011;5071;52.360;13.134;2023-04-25T15:52:55;2.33;;;1.07;;
10063;SDS011;5071;52.360;13.134;2023-04-25T15:57:57;4.83;;;0.83;;
10063;SDS011;5071;52.360;13.134;2023-04-25T16:03:00;0.60;;;0.60;;
10063;SDS011;5071;52.360;13.134;2023-04-25T16:08:03;3.60;;;0.67;;
10063;SDS011;5071;52.360;13.134;2023-04-25T16:13:05;1.50;;;0.80;;
10063;SDS011;5071;52.360;13.134;2023-04-25T16:18:08;5.47;;;1.10;;
10063;SDS011;5071;52.360;13.134;2023-04-25T16:23:11;0.70;;;0.67;;
10063;SDS011;5071;52.360;13.134;2023-04-25T16:28:13;2.97;;;1.03;;
10063;SDS011;5071;52.360;13.134;2023-04-25T16:33:16;2.97;;;0.70;;
10063;SDS011;5071;52.360;13.134;2023-04-25T16:38:18;2.10;;;0.70;;
10063;SDS011;5071;52.360;13.134;2023-04-25T16:43:20;3.30;;;0.87;;
10063;SDS011;5071;52.360;13.134;2023-04-25T16:48:24;1.83;;;0.80;;
10063;SDS011;5071;52.360;13.134;2023-04-25T16:53:26;4.10;;;0.93;;
10063;SDS011;5071;52.360;13.134;2023-04-25T16:58:27;3.57;;;1.47;;
10063;SDS011;5071;52.360;13.134;2023-04-25T17:03:31;2.23;;;0.67;;
10063;SDS011;5071;52.360;13.134;2023-04-25T17:08:35;4.63;;;0.80;;
10063;SDS011;5071;52.360;13.134;2023-04-25T17:13:38;5.40;;;0.90;;
10063;SDS011;5071;52.360;13.134;2023-04-25T17:18:41;3.07;;;0.60;;
10063;SDS011;5071;52.360;13.134;2023-04-25T17:23:44;2.10;;;0.83;;
10063;SDS011;5071;52.360;13.134;2023-04-25T17:28:46;3.27;;;0.80;;
10063;SDS011;5071;52.360;13.134;2023-04-25T17:33:49;1.43;;;0.57;;
10063;SDS011;5071;52.360;13.134;2023-04-25T17:38:51;3.10;;;0.67;;
10063;SDS011;5071;52.360;13.134;2023-04-25T17:43:53;4.27;;;0.90;;
10063;SDS011;5071;52.360;13.134;2023-04-25T17:48:56;2.10;;;0.80;;
10063;SDS011;5071;52.360;13.134;2023-04-25T17:53:58;1.87;;;0.50;;
10063;SDS011;5071;52.360;13.134;2023-04-25T17:58:59;2.00;;;0.70;;
10063;SDS011;5071;52.360;13.134;2023-04-25T18:04:03;5.50;;;0.80;;
10063;SDS011;5071;52.360;13.134;2023-04-25T18:09:05;3.60;;;1.37;;
10063;SDS011;5071;52.360;13.134;2023-04-25T18:14:07;2.23;;;0.80;;
10063;SDS011;5071;52.360;13.134;2023-04-25T18:19:11;3.10;;;1.17;;
10063;SDS011;5071;52.360;13.134;2023-04-25T18:24:13;1.33;;;0.67;;
10063;SDS011;5071;52.360;13.134;2023-04-25T18:29:16;5.03;;;0.80;;
10063;SDS011;5071;52.360;13.134;2023-04-25T18:34:35;2.60;;;0.57;;
10063;SDS011;5071;52.360;13.134;2023-04-25T18:39:37;2.67;;;1.17;;
10063;SDS011;5071;52.360;13.134;2023-04-25T18:44:40;3.80;;;0.80;;
10063;SDS011;5071;52.360;13.134;2023-04-25T18:49:43;1.53;;;0.93;;
10063;SDS011;5071;52.360;13.134;2023-04-25T18:54:45;3.60;;;1.03;;
10063;SDS011;5071;52.360;13.134;2023-04-25T18:59:47;1.40;;;0.60;;
10063;SDS011;5071;52.360;13.134;2023-04-25T19:04:50;1.67;;;0.80;;
10063;SDS011;5071;52.360;13.134;2023-04-25T19:09:52;2.87;;;0.77;;
10063;SDS011;5071;52.360;13.134;2023-04-25T19:14:54;1.70;;;0.73;;
10063;SDS011;5071;52.360;13.134;2023-04-25T19:19:57;2.63;;;0.80;;
10063;SDS011;5071;52.360;13.134;2023-04-25T19:24:59;2.53;;;1.10;;
10063;SDS011;5071;52.360;13.134;2023-04-25T19:30:11;2.60;;;0.50;;
10063;SDS011;5071;52.360;13.134;2023-04-25T19:35:15;2.57;;;0.97;;
10063;SDS011;5071;52.360;13.134;2023-04-25T19:40:18;2.30;;;1.00;;
10063;SDS011;5071;52.360;13.134;2023-04-25T19:45:20;2.47;;;0.90;;
10063;SDS011;5071;52.360;13.134;2023-04-25T19:50:24;2.60;;;1.17;;
10063;SDS011;5071;52.360;13.134;2023-04-25T19:55:26;4.47;;;1.27;;
10063;SDS011;5071;52.360;13.134;2023-04-25T20:00:27;10.87;;;1.40;;
10063;SDS011;5071;52.360;13.134;2023-04-25T20:05:30;1.67;;;1.07;;
10063;SDS011;5071;52.360;13.134;2023-04-25T20:10:32;2.03;;;0.80;;
10063;SDS011;5071;52.360;13.134;2023-04-25T20:15:34;1.40;;;0.87;;
10063;SDS011;5071;52.360;13.134;2023-04-25T20:20:37;1.37;;;0.40;;
10063;SDS011;5071;52.360;13.134;2023-04-25T20:25:39;0.63;;;0.63;;
10063;SDS011;5071;52.360;13.134;2023-04-25T20:30:41;3.80;;;0.80;;
10063;SDS011;5071;52.360;13.134;2023-04-25T20:35:45;4.77;;;1.00;;
10063;SDS011;5071;52.360;13.134;2023-04-25T20:40:47;1.53;;;0.83;;
10063;SDS011;5071;52.360;13.134;2023-04-25T20:45:50;1.87;;;0.80;;
10063;SDS011;5071;52.360;13.134;2023-04-25T20:50:53;2.13;;;0.80;;
10063;SDS011;5071;52.360;13.134;2023-04-25T20:55:54;1.73;;;0.80;;
10063;SDS011;5071;52.360;13.134;2023-04-25T21:00:57;1.60;;;0.80;;
10063;SDS011;5071;52.360;13.134;2023-04-25T21:06:01;2.60;;;0.80;;
10063;SDS011;5071;52.360;13.134;2023-04-25T21:11:03;3.37;;;0.90;;
10063;SDS011;5071;52.360;13.134;2023-04-25T21:16:05;4.23;;;0.83;;
10063;SDS011;5071;52.360;13.134;2023-04-25T21:21:09;5.27;;;1.00;;
10063;SDS011;5071;52.360;13.134;2023-04-25T21:26:11;4.73;;;0.87;;
10063;SDS011;5071;52.360;13.134;2023-04-25T21:31:13;1.60;;;0.80;;
10063;SDS011;5071;52.360;13.134;2023-04-25T21:36:16;1.90;;;1.10;;
10063;SDS011;5071;52.360;13.134;2023-04-25T21:41:19;1.27;;;0.90;;
10063;SDS011;5071;52.360;13.134;2023-04-25T21:46:21;1.17;;;0.63;;
10063;SDS011;5071;52.360;13.134;2023-04-25T21:51:25;2.43;;;0.87;;
10063;SDS011;5071;52.360;13.134;2023-04-25T21:56:27;2.70;;;0.73;;
10063;SDS011;5071;52.360;13.134;2023-04-25T22:01:29;2.00;;;0.70;;
10063;SDS011;5071;52.360;13.134;2023-04-25T22:06:33;5.23;;;1.63;;
10063;SDS011;5071;52.360;13.134;2023-04-25T22:11:35;3.10;;;0.90;;
10063;SDS011;5071;52.360;13.134;2023-04-25T22:16:37;2.97;;;0.87;;
10063;SDS011;5071;52.360;13.134;2023-04-25T22:21:41;5.30;;;1.00;;
10063;SDS011;5071;52.360;13.134;2023-04-25T22:26:44;6.07;;;0.87;;
10063;SDS011;5071;52.360;13.134;2023-04-25T22:31:46;1.83;;;0.70;;
10063;SDS011;5071;52.360;13.134;2023-04-25T22:36:49;1.67;;;0.87;;
10063;SDS011;5071;52.360;13.134;2023-04-25T22:41:52;3.87;;;1.20;;
10063;SDS011;5071;52.360;13.134;2023-04-25T22:46:54;2.77;;;0.80;;
10063;SDS011;5071;52.360;13.134;2023-04-25T22:51:57;3.23;;;1.00;;
10063;SDS011;5071;52.360;13.134;2023-04-25T22:56:59;2.63;;;0.77;;
10063;SDS011;5071;52.360;13.134;2023-04-25T23:02:01;2.70;;;0.80;;
10063;SDS011;5071;52.360;13.134;2023-04-25T23:07:05;4.70;;;0.90;;
10063;SDS011;5071;52.360;13.134;2023-04-25T23:12:07;1.73;;;0.83;;
10063;SDS011;5071;52.360;13.134;2023-04-25T23:17:09;4.20;;;0.67;;
10063;SDS011;5071;52.360;13.134;2023-04-25T23:22:12;1.67;;;0.90;;
10063;SDS011;5071;52.360;13.134;2023-04-25T23:27:15;1.93;;;1.00;;
10063;SDS011;5071;52.360;13.134;2023-04-25T23:32:17;3.47;;;1.30;;
10063;SDS011;5071;52.360;13.134;2023-04-25T23:37:21;3.27;;;0.70;;
10063;SDS011;5071;52.360;13.134;2023-04-25T23:42:23;7.90;;;1.27;;
10063;SDS011;5071;52.360;13.134;2023-04-25T23:47:25;5.20;;;1.37;;
10063;SDS011;5071;52.360;13.134;2023-04-25T23:52:29;5.73;;;1.23;;
10063;SDS011;5071;52.360;13.134;2023-04-25T23:57:31;3.93;;;1.23;;
